sensor_id;sensor_type;location;lat;lon;timestamp;P1;durP1;ratioP1;P2;durP2;ratioP2
6053;SDS011;3055;50.886;14.814;2023-02-28T00:01:34;17.83;;;12.57;;
6053;SDS011;3055;50.886;14.814;2023-02-28T00:04:03;23.70;;;13.03;;
6053;SDS011;3055;50.886;14.814;2023-02-28T00:06:30;19.33;;;12.13;;
6053;SDS011;3055;50.886;14.814;2023-02-28T00:08:57;20.77;;;13.70;;
6053;SDS011;3055;50.886;14.814;2023-02-28T00:11:24;20.87;;;14.33;;
6053;SDS011;3055;50.886;14.814;2023-02-28T00:13:51;23.53;;;13.27;;
6053;SDS011;3055;50.886;14.814;2023-02-28T00:16:19;17.67;;;12.97;;
6053;SDS011;3055;50.886;14.814;2023-02-28T00:18:47;17.10;;;12.87;;
6053;SDS011;3055;50.886;14.814;2023-02-28T00:21:16;21.63;;;13.30;;
6053;SDS011;3055;50.886;14.814;2023-02-28T00:23:45;19.13;;;12.50;;
6053;SDS011;3055;50.886;14.814;2023-02-28T00:26:12;22.83;;;12.50;;
6053;SDS011;3055;50.886;14.814;2023-02-28T00:28:39;19.03;;;12.00;;
6053;SDS011;3055;50.886;14.814;2023-02-28T00:31:06;19.07;;;12.30;;
6053;SDS011;3055;50.886;14.814;2023-02-28T00:33:34;23.37;;;13.80;;
6053;SDS011;3055;50.886;14.814;2023-02-28T00:36:01;18.07;;;11.93;;
6053;SDS011;3055;50.886;14.814;2023-02-28T00:38:31;22.13;;;13.87;;
6053;SDS011;3055;50.886;14.814;2023-02-28T00:40:58;20.97;;;13.70;;
6053;SDS011;3055;50.886;14.814;2023-02-28T00:43:29;22.03;;;13.13;;
6053;SDS011;3055;50.886;14.814;2023-02-28T00:45:58;21.13;;;13.57;;
6053;SDS011;3055;50.886;14.814;2023-02-28T00:48:25;19.37;;;12.63;;
6053;SDS011;3055;50.886;14.814;2023-02-28T00:50:52;21.27;;;13.33;;
6053;SDS011;3055;50.886;14.814;2023-02-28T00:53:19;23.67;;;13.37;;
6053;SDS011;3055;50.886;14.814;2023-02-28T00:55:48;21.47;;;13.13;;
6053;SDS011;3055;50.886;14.814;2023-02-28T00:58:15;21.43;;;13.53;;
6053;SDS011;3055;50.886;14.814;2023-02-28T01:00:42;21.60;;;13.93;;
6053;SDS011;3055;50.886;14.814;2023-02-28T01:03:14;18.30;;;12.87;;
6053;SDS011;3055;50.886;14.814;2023-02-28T01:05:42;19.10;;;13.00;;
6053;SDS011;3055;50.886;14.814;2023-02-28T01:08:09;21.27;;;13.80;;
6053;SDS011;3055;50.886;14.814;2023-02-28T01:10:36;19.77;;;12.47;;
6053;SDS011;3055;50.886;14.814;2023-02-28T01:13:04;19.30;;;12.97;;
6053;SDS011;3055;50.886;14.814;2023-02-28T01:15:32;20.43;;;13.27;;
6053;SDS011;3055;50.886;14.814;2023-02-28T01:17:59;19.93;;;13.50;;
6053;SDS011;3055;50.886;14.814;2023-02-28T01:20:26;21.50;;;12.43;;
6053;SDS011;3055;50.886;14.814;2023-02-28T01:22:53;18.40;;;12.60;;
6053;SDS011;3055;50.886;14.814;2023-02-28T01:25:20;24.20;;;13.47;;
6053;SDS011;3055;50.886;14.814;2023-02-28T01:27:47;20.27;;;13.00;;
6053;SDS011;3055;50.886;14.814;2023-02-28T01:30:16;18.90;;;13.43;;
6053;SDS011;3055;50.886;14.814;2023-02-28T01:32:43;20.33;;;12.60;;
6053;SDS011;3055;50.886;14.814;2023-02-28T01:35:10;23.43;;;12.23;;
6053;SDS011;3055;50.886;14.814;2023-02-28T01:37:38;21.30;;;13.10;;
6053;SDS011;3055;50.886;14.814;2023-02-28T01:40:05;20.80;;;12.80;;
6053;SDS011;3055;50.886;14.814;2023-02-28T01:42:33;19.90;;;12.67;;
6053;SDS011;3055;50.886;14.814;2023-02-28T01:45:02;22.70;;;12.73;;
6053;SDS011;3055;50.886;14.814;2023-02-28T01:47:35;19.23;;;12.63;;
6053;SDS011;3055;50.886;14.814;2023-02-28T01:50:07;18.50;;;12.27;;
6053;SDS011;3055;50.886;14.814;2023-02-28T01:52:37;20.23;;;12.43;;
6053;SDS011;3055;50.886;14.814;2023-02-28T01:55:04;19.20;;;12.37;;
6053;SDS011;3055;50.886;14.814;2023-02-28T01:57:34;20.43;;;13.00;;
6053;SDS011;3055;50.886;14.814;2023-02-28T02:00:06;21.30;;;13.47;;
6053;SDS011;3055;50.886;14.814;2023-02-28T02:02:39;17.97;;;12.17;;
6053;SDS011;3055;50.886;14.814;2023-02-28T02:05:08;21.20;;;12.50;;
6053;SDS011;3055;50.886;14.814;2023-02-28T02:07:38;18.30;;;12.97;;
6053;SDS011;3055;50.886;14.814;2023-02-28T02:10:11;20.60;;;13.57;;
6053;SDS011;3055;50.886;14.814;2023-02-28T02:12:45;22.93;;;14.10;;
6053;SDS011;3055;50.886;14.814;2023-02-28T02:15:30;22.37;;;14.20;;
6053;SDS011;3055;50.886;14.814;2023-02-28T02:18:04;20.97;;;13.57;;
6053;SDS011;3055;50.886;14.814;2023-02-28T02:23:56;22.73;;;14.67;;
6053;SDS011;3055;50.886;14.814;2023-02-28T02:26:50;19.00;;;13.07;;
6053;SDS011;3055;50.886;14.814;2023-02-28T02:32:45;16.47;;;11.57;;
6053;SDS011;3055;50.886;14.814;2023-02-28T02:35:37;17.17;;;11.70;;
6053;SDS011;3055;50.886;14.814;2023-02-28T02:38:09;19.23;;;12.20;;
6053;SDS011;3055;50.886;14.814;2023-02-28T02:40:43;19.20;;;11.93;;
6053;SDS011;3055;50.886;14.814;2023-02-28T02:43:16;17.90;;;11.87;;
6053;SDS011;3055;50.886;14.814;2023-02-28T02:45:47;16.10;;;11.13;;
6053;SDS011;3055;50.886;14.814;2023-02-28T02:48:19;18.60;;;11.67;;
6053;SDS011;3055;50.886;14.814;2023-02-28T02:50:52;18.17;;;11.40;;
6053;SDS011;3055;50.886;14.814;2023-02-28T02:53:23;18.67;;;11.70;;
6053;SDS011;3055;50.886;14.814;2023-02-28T02:55:54;17.63;;;11.80;;
6053;SDS011;3055;50.886;14.814;2023-02-28T02:58:23;17.13;;;11.40;;
6053;SDS011;3055;50.886;14.814;2023-02-28T03:00:55;15.47;;;12.13;;
6053;SDS011;3055;50.886;14.814;2023-02-28T03:03:26;17.37;;;11.37;;
6053;SDS011;3055;50.886;14.814;2023-02-28T03:05:56;16.07;;;12.10;;
6053;SDS011;3055;50.886;14.814;2023-02-28T03:08:25;15.33;;;12.20;;
6053;SDS011;3055;50.886;14.814;2023-02-28T03:10:55;15.57;;;11.87;;
6053;SDS011;3055;50.886;14.814;2023-02-28T03:13:30;19.97;;;13.07;;
6053;SDS011;3055;50.886;14.814;2023-02-28T03:16:22;17.07;;;11.67;;
6053;SDS011;3055;50.886;14.814;2023-02-28T03:19:00;20.17;;;11.53;;
6053;SDS011;3055;50.886;14.814;2023-02-28T03:21:38;18.73;;;12.40;;
6053;SDS011;3055;50.886;14.814;2023-02-28T03:24:10;19.33;;;12.73;;
6053;SDS011;3055;50.886;14.814;2023-02-28T03:26:43;15.77;;;11.10;;
6053;SDS011;3055;50.886;14.814;2023-02-28T03:29:18;18.07;;;12.57;;
6053;SDS011;3055;50.886;14.814;2023-02-28T03:31:50;17.90;;;11.90;;
6053;SDS011;3055;50.886;14.814;2023-02-28T03:34:25;15.97;;;11.37;;
6053;SDS011;3055;50.886;14.814;2023-02-28T03:37:00;18.97;;;12.03;;
6053;SDS011;3055;50.886;14.814;2023-02-28T03:39:31;20.27;;;12.20;;
6053;SDS011;3055;50.886;14.814;2023-02-28T03:42:04;21.03;;;12.90;;
6053;SDS011;3055;50.886;14.814;2023-02-28T03:44:36;18.77;;;11.60;;
6053;SDS011;3055;50.886;14.814;2023-02-28T03:47:08;21.07;;;13.50;;
6053;SDS011;3055;50.886;14.814;2023-02-28T03:49:40;18.37;;;12.63;;
6053;SDS011;3055;50.886;14.814;2023-02-28T03:52:14;18.90;;;13.00;;
6053;SDS011;3055;50.886;14.814;2023-02-28T03:54:44;19.60;;;12.97;;
6053;SDS011;3055;50.886;14.814;2023-02-28T03:57:15;19.77;;;13.30;;
6053;SDS011;3055;50.886;14.814;2023-02-28T03:59:49;20.10;;;13.57;;
6053;SDS011;3055;50.886;14.814;2023-02-28T04:02:23;18.53;;;13.50;;
6053;SDS011;3055;50.886;14.814;2023-02-28T04:04:50;22.37;;;14.10;;
6053;SDS011;3055;50.886;14.814;2023-02-28T04:07:18;23.00;;;13.97;;
6053;SDS011;3055;50.886;14.814;2023-02-28T04:09:45;18.43;;;12.80;;
6053;SDS011;3055;50.886;14.814;2023-02-28T04:12:13;23.63;;;13.90;;
6053;SDS011;3055;50.886;14.814;2023-02-28T04:14:40;21.10;;;13.90;;
6053;SDS011;3055;50.886;14.814;2023-02-28T04:17:07;22.33;;;13.93;;
6053;SDS011;3055;50.886;14.814;2023-02-28T04:19:34;18.93;;;12.67;;
6053;SDS011;3055;50.886;14.814;2023-02-28T04:22:01;16.53;;;12.23;;
6053;SDS011;3055;50.886;14.814;2023-02-28T04:24:29;18.60;;;12.60;;
6053;SDS011;3055;50.886;14.814;2023-02-28T04:26:57;19.57;;;12.63;;
6053;SDS011;3055;50.886;14.814;2023-02-28T04:29:25;19.07;;;11.77;;
6053;SDS011;3055;50.886;14.814;2023-02-28T04:31:54;19.27;;;11.93;;
6053;SDS011;3055;50.886;14.814;2023-02-28T04:34:23;19.20;;;12.67;;
6053;SDS011;3055;50.886;14.814;2023-02-28T04:36:51;18.10;;;12.47;;
6053;SDS011;3055;50.886;14.814;2023-02-28T04:39:19;19.57;;;11.83;;
6053;SDS011;3055;50.886;14.814;2023-02-28T04:41:48;18.37;;;12.27;;
6053;SDS011;3055;50.886;14.814;2023-02-28T04:44:15;19.00;;;12.80;;
6053;SDS011;3055;50.886;14.814;2023-02-28T04:46:43;20.80;;;11.77;;
6053;SDS011;3055;50.886;14.814;2023-02-28T04:49:10;15.80;;;12.27;;
6053;SDS011;3055;50.886;14.814;2023-02-28T04:51:38;18.93;;;11.77;;
6053;SDS011;3055;50.886;14.814;2023-02-28T04:54:05;18.90;;;12.20;;
6053;SDS011;3055;50.886;14.814;2023-02-28T04:56:33;19.70;;;12.63;;
6053;SDS011;3055;50.886;14.814;2023-02-28T04:59:02;20.40;;;13.60;;
6053;SDS011;3055;50.886;14.814;2023-02-28T05:01:29;19.23;;;13.57;;
6053;SDS011;3055;50.886;14.814;2023-02-28T05:04:00;20.73;;;12.40;;
6053;SDS011;3055;50.886;14.814;2023-02-28T05:06:29;18.33;;;12.87;;
6053;SDS011;3055;50.886;14.814;2023-02-28T05:08:58;15.13;;;12.23;;
6053;SDS011;3055;50.886;14.814;2023-02-28T05:11:26;19.00;;;13.43;;
6053;SDS011;3055;50.886;14.814;2023-02-28T05:13:59;19.90;;;12.43;;
6053;SDS011;3055;50.886;14.814;2023-02-28T05:16:28;18.90;;;12.33;;
6053;SDS011;3055;50.886;14.814;2023-02-28T05:18:56;20.70;;;14.77;;
6053;SDS011;3055;50.886;14.814;2023-02-28T05:21:24;18.67;;;13.27;;
6053;SDS011;3055;50.886;14.814;2023-02-28T05:23:53;25.27;;;13.83;;
6053;SDS011;3055;50.886;14.814;2023-02-28T05:26:22;20.13;;;13.17;;
6053;SDS011;3055;50.886;14.814;2023-02-28T05:28:49;20.73;;;13.87;;
6053;SDS011;3055;50.886;14.814;2023-02-28T05:31:17;25.83;;;14.80;;
6053;SDS011;3055;50.886;14.814;2023-02-28T05:33:45;22.37;;;15.00;;
6053;SDS011;3055;50.886;14.814;2023-02-28T05:36:13;28.93;;;15.73;;
6053;SDS011;3055;50.886;14.814;2023-02-28T05:38:40;25.30;;;15.67;;
6053;SDS011;3055;50.886;14.814;2023-02-28T05:41:07;27.40;;;16.13;;
6053;SDS011;3055;50.886;14.814;2023-02-28T05:43:36;31.83;;;19.37;;
6053;SDS011;3055;50.886;14.814;2023-02-28T05:46:04;28.60;;;18.90;;
6053;SDS011;3055;50.886;14.814;2023-02-28T05:48:31;34.20;;;18.40;;
6053;SDS011;3055;50.886;14.814;2023-02-28T05:51:00;34.87;;;21.97;;
6053;SDS011;3055;50.886;14.814;2023-02-28T05:53:28;35.77;;;21.63;;
6053;SDS011;3055;50.886;14.814;2023-02-28T05:55:55;30.33;;;19.90;;
6053;SDS011;3055;50.886;14.814;2023-02-28T05:58:22;30.60;;;19.50;;
6053;SDS011;3055;50.886;14.814;2023-02-28T06:00:50;32.50;;;19.80;;
6053;SDS011;3055;50.886;14.814;2023-02-28T06:03:17;29.93;;;18.73;;
6053;SDS011;3055;50.886;14.814;2023-02-28T06:05:44;28.97;;;17.53;;
6053;SDS011;3055;50.886;14.814;2023-02-28T06:08:13;27.83;;;17.77;;
6053;SDS011;3055;50.886;14.814;2023-02-28T06:10:40;28.97;;;18.67;;
6053;SDS011;3055;50.886;14.814;2023-02-28T06:13:07;26.50;;;17.87;;
6053;SDS011;3055;50.886;14.814;2023-02-28T06:15:34;24.37;;;17.30;;
6053;SDS011;3055;50.886;14.814;2023-02-28T06:18:02;23.47;;;17.30;;
6053;SDS011;3055;50.886;14.814;2023-02-28T06:20:29;27.57;;;17.60;;
6053;SDS011;3055;50.886;14.814;2023-02-28T06:22:56;27.40;;;17.53;;
6053;SDS011;3055;50.886;14.814;2023-02-28T06:25:26;24.83;;;16.03;;
6053;SDS011;3055;50.886;14.814;2023-02-28T06:27:54;27.50;;;16.73;;
6053;SDS011;3055;50.886;14.814;2023-02-28T06:30:21;26.40;;;17.40;;
6053;SDS011;3055;50.886;14.814;2023-02-28T06:32:52;24.33;;;16.10;;
6053;SDS011;3055;50.886;14.814;2023-02-28T06:35:19;28.87;;;17.77;;
6053;SDS011;3055;50.886;14.814;2023-02-28T06:37:46;24.20;;;16.37;;
6053;SDS011;3055;50.886;14.814;2023-02-28T06:40:13;26.03;;;17.47;;
6053;SDS011;3055;50.886;14.814;2023-02-28T06:42:42;29.40;;;18.80;;
6053;SDS011;3055;50.886;14.814;2023-02-28T06:45:09;28.20;;;17.63;;
6053;SDS011;3055;50.886;14.814;2023-02-28T06:47:39;24.77;;;17.30;;
6053;SDS011;3055;50.886;14.814;2023-02-28T06:50:07;28.03;;;16.37;;
6053;SDS011;3055;50.886;14.814;2023-02-28T06:52:36;28.33;;;17.33;;
6053;SDS011;3055;50.886;14.814;2023-02-28T06:55:03;24.33;;;16.50;;
6053;SDS011;3055;50.886;14.814;2023-02-28T06:57:31;25.97;;;15.57;;
6053;SDS011;3055;50.886;14.814;2023-02-28T07:00:03;25.90;;;15.97;;
6053;SDS011;3055;50.886;14.814;2023-02-28T07:02:32;28.60;;;18.10;;
6053;SDS011;3055;50.886;14.814;2023-02-28T07:05:00;28.67;;;18.53;;
6053;SDS011;3055;50.886;14.814;2023-02-28T07:07:27;30.23;;;17.33;;
6053;SDS011;3055;50.886;14.814;2023-02-28T07:09:54;25.20;;;17.50;;
6053;SDS011;3055;50.886;14.814;2023-02-28T07:12:21;26.87;;;17.83;;
6053;SDS011;3055;50.886;14.814;2023-02-28T07:14:48;27.03;;;17.37;;
6053;SDS011;3055;50.886;14.814;2023-02-28T07:17:17;28.23;;;18.43;;
6053;SDS011;3055;50.886;14.814;2023-02-28T07:19:44;28.97;;;17.37;;
6053;SDS011;3055;50.886;14.814;2023-02-28T07:22:11;23.93;;;16.07;;
6053;SDS011;3055;50.886;14.814;2023-02-28T07:24:38;21.33;;;16.50;;
6053;SDS011;3055;50.886;14.814;2023-02-28T07:27:05;25.23;;;17.20;;
6053;SDS011;3055;50.886;14.814;2023-02-28T07:29:32;26.03;;;17.00;;
6053;SDS011;3055;50.886;14.814;2023-02-28T07:31:59;22.63;;;16.63;;
6053;SDS011;3055;50.886;14.814;2023-02-28T07:34:28;26.47;;;16.60;;
6053;SDS011;3055;50.886;14.814;2023-02-28T07:36:55;22.57;;;16.43;;
6053;SDS011;3055;50.886;14.814;2023-02-28T07:39:22;22.97;;;15.57;;
6053;SDS011;3055;50.886;14.814;2023-02-28T07:41:49;21.63;;;15.33;;
6053;SDS011;3055;50.886;14.814;2023-02-28T07:44:16;23.93;;;14.53;;
6053;SDS011;3055;50.886;14.814;2023-02-28T07:46:43;20.97;;;13.77;;
6053;SDS011;3055;50.886;14.814;2023-02-28T07:49:10;20.50;;;14.70;;
6053;SDS011;3055;50.886;14.814;2023-02-28T07:51:39;19.77;;;13.93;;
6053;SDS011;3055;50.886;14.814;2023-02-28T07:54:06;20.97;;;15.17;;
6053;SDS011;3055;50.886;14.814;2023-02-28T07:56:33;20.50;;;14.10;;
6053;SDS011;3055;50.886;14.814;2023-02-28T07:59:00;22.77;;;14.73;;
6053;SDS011;3055;50.886;14.814;2023-02-28T08:01:27;24.90;;;16.47;;
6053;SDS011;3055;50.886;14.814;2023-02-28T08:03:55;22.17;;;14.53;;
6053;SDS011;3055;50.886;14.814;2023-02-28T08:06:22;20.90;;;13.83;;
6053;SDS011;3055;50.886;14.814;2023-02-28T08:08:52;21.17;;;14.30;;
6053;SDS011;3055;50.886;14.814;2023-02-28T08:11:21;20.30;;;14.57;;
6053;SDS011;3055;50.886;14.814;2023-02-28T08:13:48;18.20;;;13.30;;
6053;SDS011;3055;50.886;14.814;2023-02-28T08:16:15;18.93;;;12.43;;
6053;SDS011;3055;50.886;14.814;2023-02-28T08:18:47;17.40;;;12.77;;
6053;SDS011;3055;50.886;14.814;2023-02-28T08:21:14;17.80;;;12.90;;
6053;SDS011;3055;50.886;14.814;2023-02-28T08:23:41;17.60;;;11.73;;
6053;SDS011;3055;50.886;14.814;2023-02-28T08:26:09;16.67;;;11.23;;
6053;SDS011;3055;50.886;14.814;2023-02-28T08:28:36;16.63;;;11.93;;
6053;SDS011;3055;50.886;14.814;2023-02-28T08:31:06;18.63;;;12.23;;
6053;SDS011;3055;50.886;14.814;2023-02-28T08:33:35;20.63;;;13.30;;
6053;SDS011;3055;50.886;14.814;2023-02-28T08:36:04;16.90;;;12.90;;
6053;SDS011;3055;50.886;14.814;2023-02-28T08:38:31;18.93;;;13.33;;
6053;SDS011;3055;50.886;14.814;2023-02-28T08:40:59;16.60;;;11.43;;
6053;SDS011;3055;50.886;14.814;2023-02-28T08:43:28;16.53;;;12.07;;
6053;SDS011;3055;50.886;14.814;2023-02-28T08:45:55;18.47;;;12.30;;
6053;SDS011;3055;50.886;14.814;2023-02-28T08:48:23;21.40;;;13.47;;
6053;SDS011;3055;50.886;14.814;2023-02-28T08:50:56;18.93;;;12.63;;
6053;SDS011;3055;50.886;14.814;2023-02-28T08:53:24;21.23;;;14.03;;
6053;SDS011;3055;50.886;14.814;2023-02-28T08:55:55;20.40;;;13.77;;
6053;SDS011;3055;50.886;14.814;2023-02-28T08:58:23;17.70;;;12.27;;
6053;SDS011;3055;50.886;14.814;2023-02-28T09:00:52;19.80;;;13.00;;
6053;SDS011;3055;50.886;14.814;2023-02-28T09:03:19;21.83;;;13.60;;
6053;SDS011;3055;50.886;14.814;2023-02-28T09:05:53;25.70;;;15.80;;
6053;SDS011;3055;50.886;14.814;2023-02-28T09:08:22;20.10;;;14.17;;
6053;SDS011;3055;50.886;14.814;2023-02-28T09:10:49;16.07;;;11.40;;
6053;SDS011;3055;50.886;14.814;2023-02-28T09:13:16;18.30;;;11.90;;
6053;SDS011;3055;50.886;14.814;2023-02-28T09:15:43;13.77;;;8.90;;
6053;SDS011;3055;50.886;14.814;2023-02-28T09:18:12;17.03;;;8.50;;
6053;SDS011;3055;50.886;14.814;2023-02-28T09:20:39;11.20;;;7.80;;
6053;SDS011;3055;50.886;14.814;2023-02-28T09:23:07;11.43;;;8.57;;
6053;SDS011;3055;50.886;14.814;2023-02-28T09:25:34;9.63;;;7.60;;
6053;SDS011;3055;50.886;14.814;2023-02-28T09:28:02;13.43;;;7.43;;
6053;SDS011;3055;50.886;14.814;2023-02-28T09:30:30;11.47;;;7.40;;
6053;SDS011;3055;50.886;14.814;2023-02-28T09:32:57;10.27;;;7.37;;
6053;SDS011;3055;50.886;14.814;2023-02-28T09:35:25;12.33;;;6.93;;
6053;SDS011;3055;50.886;14.814;2023-02-28T09:37:52;11.67;;;7.00;;
6053;SDS011;3055;50.886;14.814;2023-02-28T09:40:20;10.33;;;8.30;;
6053;SDS011;3055;50.886;14.814;2023-02-28T09:42:50;14.50;;;7.80;;
6053;SDS011;3055;50.886;14.814;2023-02-28T09:45:21;13.23;;;8.20;;
6053;SDS011;3055;50.886;14.814;2023-02-28T09:47:53;18.77;;;10.33;;
6053;SDS011;3055;50.886;14.814;2023-02-28T09:50:28;10.63;;;7.60;;
6053;SDS011;3055;50.886;14.814;2023-02-28T09:53:00;10.83;;;6.67;;
6053;SDS011;3055;50.886;14.814;2023-02-28T09:55:33;8.93;;;6.60;;
6053;SDS011;3055;50.886;14.814;2023-02-28T09:58:05;8.87;;;6.47;;
6053;SDS011;3055;50.886;14.814;2023-02-28T10:00:42;16.03;;;6.50;;
6053;SDS011;3055;50.886;14.814;2023-02-28T10:03:24;11.33;;;7.47;;
6053;SDS011;3055;50.886;14.814;2023-02-28T10:05:58;8.70;;;7.03;;
6053;SDS011;3055;50.886;14.814;2023-02-28T10:08:31;9.97;;;6.77;;
6053;SDS011;3055;50.886;14.814;2023-02-28T10:11:06;10.90;;;6.90;;
6053;SDS011;3055;50.886;14.814;2023-02-28T10:13:40;9.73;;;6.40;;
6053;SDS011;3055;50.886;14.814;2023-02-28T10:16:28;9.93;;;7.43;;
6053;SDS011;3055;50.886;14.814;2023-02-28T10:19:01;12.27;;;6.97;;
6053;SDS011;3055;50.886;14.814;2023-02-28T10:21:34;10.63;;;7.10;;
6053;SDS011;3055;50.886;14.814;2023-02-28T10:24:04;8.10;;;7.23;;
6053;SDS011;3055;50.886;14.814;2023-02-28T10:26:43;8.00;;;6.53;;
6053;SDS011;3055;50.886;14.814;2023-02-28T10:29:13;7.93;;;6.33;;
6053;SDS011;3055;50.886;14.814;2023-02-28T10:31:41;10.90;;;6.70;;
6053;SDS011;3055;50.886;14.814;2023-02-28T10:34:08;8.90;;;6.70;;
6053;SDS011;3055;50.886;14.814;2023-02-28T10:36:40;10.17;;;6.97;;
6053;SDS011;3055;50.886;14.814;2023-02-28T10:42:02;7.83;;;7.07;;
6053;SDS011;3055;50.886;14.814;2023-02-28T10:44:30;10.10;;;7.13;;
6053;SDS011;3055;50.886;14.814;2023-02-28T10:46:57;8.93;;;6.07;;
6053;SDS011;3055;50.886;14.814;2023-02-28T10:49:27;5.93;;;5.33;;
6053;SDS011;3055;50.886;14.814;2023-02-28T10:51:57;8.67;;;5.43;;
6053;SDS011;3055;50.886;14.814;2023-02-28T10:54:27;6.60;;;5.83;;
6053;SDS011;3055;50.886;14.814;2023-02-28T10:57:15;8.93;;;6.37;;
6053;SDS011;3055;50.886;14.814;2023-02-28T10:59:43;9.33;;;5.90;;
6053;SDS011;3055;50.886;14.814;2023-02-28T11:04:57;9.03;;;6.73;;
6053;SDS011;3055;50.886;14.814;2023-02-28T11:07:25;8.23;;;6.60;;
6053;SDS011;3055;50.886;14.814;2023-02-28T11:09:53;8.50;;;7.63;;
6053;SDS011;3055;50.886;14.814;2023-02-28T11:12:23;6.47;;;5.80;;
6053;SDS011;3055;50.886;14.814;2023-02-28T11:14:54;11.20;;;7.63;;
6053;SDS011;3055;50.886;14.814;2023-02-28T11:17:24;11.27;;;7.20;;
6053;SDS011;3055;50.886;14.814;2023-02-28T11:19:54;7.30;;;6.50;;
6053;SDS011;3055;50.886;14.814;2023-02-28T11:22:26;7.97;;;6.50;;
6053;SDS011;3055;50.886;14.814;2023-02-28T11:24:55;8.97;;;6.43;;
6053;SDS011;3055;50.886;14.814;2023-02-28T11:27:26;8.13;;;6.23;;
6053;SDS011;3055;50.886;14.814;2023-02-28T11:30:23;7.13;;;6.30;;
6053;SDS011;3055;50.886;14.814;2023-02-28T11:32:52;8.43;;;6.23;;
6053;SDS011;3055;50.886;14.814;2023-02-28T11:35:20;8.60;;;6.00;;
6053;SDS011;3055;50.886;14.814;2023-02-28T11:37:52;6.97;;;6.23;;
6053;SDS011;3055;50.886;14.814;2023-02-28T11:40:20;8.80;;;6.83;;
6053;SDS011;3055;50.886;14.814;2023-02-28T11:42:57;9.10;;;7.30;;
6053;SDS011;3055;50.886;14.814;2023-02-28T11:45:41;10.93;;;6.80;;
6053;SDS011;3055;50.886;14.814;2023-02-28T11:48:16;8.87;;;6.27;;
6053;SDS011;3055;50.886;14.814;2023-02-28T11:50:59;6.93;;;5.63;;
6053;SDS011;3055;50.886;14.814;2023-02-28T11:53:43;8.07;;;6.10;;
6053;SDS011;3055;50.886;14.814;2023-02-28T11:56:19;8.40;;;6.80;;
6053;SDS011;3055;50.886;14.814;2023-02-28T11:58:54;8.17;;;6.50;;
6053;SDS011;3055;50.886;14.814;2023-02-28T12:01:35;8.90;;;6.13;;
6053;SDS011;3055;50.886;14.814;2023-02-28T12:04:23;7.17;;;6.20;;
6053;SDS011;3055;50.886;14.814;2023-02-28T12:06:56;7.10;;;5.80;;
6053;SDS011;3055;50.886;14.814;2023-02-28T12:12:26;6.53;;;5.80;;
6053;SDS011;3055;50.886;14.814;2023-02-28T12:18:10;9.97;;;6.37;;
6053;SDS011;3055;50.886;14.814;2023-02-28T12:21:00;7.20;;;6.20;;
6053;SDS011;3055;50.886;14.814;2023-02-28T12:23:41;8.77;;;6.43;;
6053;SDS011;3055;50.886;14.814;2023-02-28T12:26:18;10.30;;;7.00;;
6053;SDS011;3055;50.886;14.814;2023-02-28T12:28:48;10.27;;;6.30;;
6053;SDS011;3055;50.886;14.814;2023-02-28T12:31:18;8.77;;;6.03;;
6053;SDS011;3055;50.886;14.814;2023-02-28T12:33:50;11.53;;;6.50;;
6053;SDS011;3055;50.886;14.814;2023-02-28T12:36:22;9.07;;;6.70;;
6053;SDS011;3055;50.886;14.814;2023-02-28T12:38:52;9.80;;;7.20;;
6053;SDS011;3055;50.886;14.814;2023-02-28T12:41:26;10.23;;;7.83;;
6053;SDS011;3055;50.886;14.814;2023-02-28T12:43:58;9.67;;;7.97;;
6053;SDS011;3055;50.886;14.814;2023-02-28T12:46:30;7.77;;;6.57;;
6053;SDS011;3055;50.886;14.814;2023-02-28T12:49:04;7.27;;;6.20;;
6053;SDS011;3055;50.886;14.814;2023-02-28T12:51:33;8.60;;;7.00;;
6053;SDS011;3055;50.886;14.814;2023-02-28T12:54:04;7.23;;;6.00;;
6053;SDS011;3055;50.886;14.814;2023-02-28T12:56:43;7.37;;;6.37;;
6053;SDS011;3055;50.886;14.814;2023-02-28T12:59:17;7.60;;;6.27;;
6053;SDS011;3055;50.886;14.814;2023-02-28T13:01:56;8.30;;;6.50;;
6053;SDS011;3055;50.886;14.814;2023-02-28T13:07:43;17.97;;;7.60;;
6053;SDS011;3055;50.886;14.814;2023-02-28T13:10:39;8.07;;;6.47;;
6053;SDS011;3055;50.886;14.814;2023-02-28T13:13:15;10.07;;;6.57;;
6053;SDS011;3055;50.886;14.814;2023-02-28T13:15:56;8.40;;;6.67;;
6053;SDS011;3055;50.886;14.814;2023-02-28T13:18:30;8.27;;;6.77;;
6053;SDS011;3055;50.886;14.814;2023-02-28T13:20:58;12.90;;;6.97;;
6053;SDS011;3055;50.886;14.814;2023-02-28T13:23:40;8.63;;;7.57;;
6053;SDS011;3055;50.886;14.814;2023-02-28T13:29:29;9.90;;;7.60;;
6053;SDS011;3055;50.886;14.814;2023-02-28T13:38:16;9.20;;;6.70;;
6053;SDS011;3055;50.886;14.814;2023-02-28T13:44:01;8.40;;;7.03;;
6053;SDS011;3055;50.886;14.814;2023-02-28T13:46:31;9.47;;;7.73;;
6053;SDS011;3055;50.886;14.814;2023-02-28T13:49:19;9.73;;;7.57;;
6053;SDS011;3055;50.886;14.814;2023-02-28T13:51:51;9.50;;;7.43;;
6053;SDS011;3055;50.886;14.814;2023-02-28T13:54:21;8.30;;;7.10;;
6053;SDS011;3055;50.886;14.814;2023-02-28T13:57:01;8.80;;;6.50;;
6053;SDS011;3055;50.886;14.814;2023-02-28T13:59:38;7.40;;;6.47;;
6053;SDS011;3055;50.886;14.814;2023-02-28T14:02:22;8.40;;;7.13;;
6053;SDS011;3055;50.886;14.814;2023-02-28T14:05:05;8.60;;;7.20;;
6053;SDS011;3055;50.886;14.814;2023-02-28T14:07:40;8.07;;;6.90;;
6053;SDS011;3055;50.886;14.814;2023-02-28T14:10:15;7.93;;;6.93;;
6053;SDS011;3055;50.886;14.814;2023-02-28T14:13:00;9.50;;;7.27;;
6053;SDS011;3055;50.886;14.814;2023-02-28T14:15:39;8.40;;;7.40;;
6053;SDS011;3055;50.886;14.814;2023-02-28T14:18:15;13.33;;;9.17;;
6053;SDS011;3055;50.886;14.814;2023-02-28T14:20:46;10.47;;;8.43;;
6053;SDS011;3055;50.886;14.814;2023-02-28T14:23:16;9.80;;;7.70;;
6053;SDS011;3055;50.886;14.814;2023-02-28T14:26:00;9.10;;;8.07;;
6053;SDS011;3055;50.886;14.814;2023-02-28T14:28:39;13.93;;;9.00;;
6053;SDS011;3055;50.886;14.814;2023-02-28T14:31:17;10.40;;;8.47;;
6053;SDS011;3055;50.886;14.814;2023-02-28T14:36:48;13.70;;;9.67;;
6053;SDS011;3055;50.886;14.814;2023-02-28T14:39:16;10.87;;;8.47;;
6053;SDS011;3055;50.886;14.814;2023-02-28T14:41:47;13.13;;;10.00;;
6053;SDS011;3055;50.886;14.814;2023-02-28T14:44:15;15.90;;;9.73;;
6053;SDS011;3055;50.886;14.814;2023-02-28T14:46:44;10.93;;;8.90;;
6053;SDS011;3055;50.886;14.814;2023-02-28T14:49:18;10.93;;;7.83;;
6053;SDS011;3055;50.886;14.814;2023-02-28T14:51:49;20.67;;;11.53;;
6053;SDS011;3055;50.886;14.814;2023-02-28T14:54:27;22.73;;;12.50;;
6053;SDS011;3055;50.886;14.814;2023-02-28T14:56:55;15.90;;;9.80;;
6053;SDS011;3055;50.886;14.814;2023-02-28T14:59:23;15.17;;;9.60;;
6053;SDS011;3055;50.886;14.814;2023-02-28T15:01:53;15.10;;;9.63;;
6053;SDS011;3055;50.886;14.814;2023-02-28T15:04:53;14.13;;;10.03;;
6053;SDS011;3055;50.886;14.814;2023-02-28T15:07:21;15.63;;;10.50;;
6053;SDS011;3055;50.886;14.814;2023-02-28T15:10:06;14.83;;;9.70;;
6053;SDS011;3055;50.886;14.814;2023-02-28T15:12:34;12.43;;;8.50;;
6053;SDS011;3055;50.886;14.814;2023-02-28T15:15:02;10.37;;;8.20;;
6053;SDS011;3055;50.886;14.814;2023-02-28T15:17:30;16.17;;;10.13;;
6053;SDS011;3055;50.886;14.814;2023-02-28T15:19:58;13.83;;;9.80;;
6053;SDS011;3055;50.886;14.814;2023-02-28T15:22:27;12.17;;;9.53;;
6053;SDS011;3055;50.886;14.814;2023-02-28T15:24:57;15.33;;;10.47;;
6053;SDS011;3055;50.886;14.814;2023-02-28T15:27:27;16.87;;;10.87;;
6053;SDS011;3055;50.886;14.814;2023-02-28T15:29:58;16.63;;;11.60;;
6053;SDS011;3055;50.886;14.814;2023-02-28T15:32:28;16.20;;;12.20;;
6053;SDS011;3055;50.886;14.814;2023-02-28T15:34:56;19.17;;;11.93;;
6053;SDS011;3055;50.886;14.814;2023-02-28T15:37:45;19.13;;;11.73;;
6053;SDS011;3055;50.886;14.814;2023-02-28T15:40:15;20.27;;;11.90;;